sensor_id;sensor_type;location;lat;lon;timestamp;pressure;altitude;pressure_sealevel;temperature;humidity
64243;BME280;50573;51.512;5.386;2023-03-30T00:03:55;100347.13;;;14.37;73.83
64243;BME280;50573;51.512;5.386;2023-03-30T00:14:01;100330.88;;;14.33;74.01
64243;BME280;50573;51.512;5.386;2023-03-30T00:24:04;100328.91;;;14.10;74.99
64243;BME280;50573;51.512;5.386;2023-03-30T00:34:09;100326.25;;;14.16;74.55
64243;BME280;50573;51.512;5.386;2023-03-30T00:54:50;100276.38;;;13.97;74.50
64243;BME280;50573;51.512;5.386;2023-03-30T01:04:56;100266.78;;;13.92;75.61
64243;BME280;50573;51.512;5.386;2023-03-30T01:15:00;100259.75;;;13.77;76.39
64243;BME280;50573;51.512;5.386;2023-03-30T01:36:07;100264.97;;;13.42;78.84
64243;BME280;50573;51.512;5.386;2023-03-30T01:46:24;100247.91;;;13.94;76.59
64243;BME280;50573;51.512;5.386;2023-03-30T01:56:32;100258.81;;;14.04;75.80
64243;BME280;50573;51.512;5.386;2023-03-30T02:06:42;100257.88;;;14.07;75.33
64243;BME280;50573;51.512;5.386;2023-03-30T02:16:48;100273.41;;;14.01;76.83
64243;BME280;50573;51.512;5.386;2023-03-30T02:26:52;100256.59;;;13.93;76.70
64243;BME280;50573;51.512;5.386;2023-03-30T02:37:06;100254.34;;;13.91;76.53
64243;BME280;50573;51.512;5.386;2023-03-30T02:47:19;100252.41;;;14.07;76.43
64243;BME280;50573;51.512;5.386;2023-03-30T02:57:29;100251.47;;;14.24;75.46
64243;BME280;50573;51.512;5.386;2023-03-30T03:08:06;100231.69;;;14.29;75.41
64243;BME280;50573;51.512;5.386;2023-03-30T03:18:10;100252.56;;;14.41;74.99
64243;BME280;50573;51.512;5.386;2023-03-30T03:28:17;100229.22;;;14.31;75.02
64243;BME280;50573;51.512;5.386;2023-03-30T03:38:24;100243.00;;;14.37;74.50
64243;BME280;50573;51.512;5.386;2023-03-30T03:48:31;100231.59;;;14.38;73.86
64243;BME280;50573;51.512;5.386;2023-03-30T03:58:34;100218.00;;;14.44;73.39
64243;BME280;50573;51.512;5.386;2023-03-30T04:08:38;100228.28;;;14.49;72.88
64243;BME280;50573;51.512;5.386;2023-03-30T04:18:53;100209.75;;;14.29;74.67
64243;BME280;50573;51.512;5.386;2023-03-30T04:29:24;100197.81;;;14.18;75.84
64243;BME280;50573;51.512;5.386;2023-03-30T04:39:37;100193.81;;;14.04;76.17
64243;BME280;50573;51.512;5.386;2023-03-30T04:50:00;100177.28;;;13.84;77.24
64243;BME280;50573;51.512;5.386;2023-03-30T05:00:12;100195.78;;;13.74;77.18
64243;BME280;50573;51.512;5.386;2023-03-30T05:10:32;100229.31;;;13.60;82.25
64243;BME280;50573;51.512;5.386;2023-03-30T05:21:04;100224.81;;;12.83;96.41
64243;BME280;50573;51.512;5.386;2023-03-30T05:31:24;100241.03;;;12.36;100.00
64243;BME280;50573;51.512;5.386;2023-03-30T05:41:54;100252.28;;;12.11;100.00
64243;BME280;50573;51.512;5.386;2023-03-30T05:52:19;100234.53;;;11.88;100.00
64243;BME280;50573;51.512;5.386;2023-03-30T06:02:32;100252.25;;;11.84;100.00
64243;BME280;50573;51.512;5.386;2023-03-30T06:12:41;100256.19;;;11.74;100.00
64243;BME280;50573;51.512;5.386;2023-03-30T06:22:59;100261.38;;;11.81;100.00
64243;BME280;50573;51.512;5.386;2023-03-30T06:33:05;100270.63;;;11.92;100.00
64243;BME280;50573;51.512;5.386;2023-03-30T06:43:15;100278.06;;;11.83;100.00
64243;BME280;50573;51.512;5.386;2023-03-30T06:53:28;100277.91;;;11.86;100.00
64243;BME280;50573;51.512;5.386;2023-03-30T07:03:31;100280.03;;;12.00;100.00
64243;BME280;50573;51.512;5.386;2023-03-30T07:14:02;100286.56;;;12.12;100.00
64243;BME280;50573;51.512;5.386;2023-03-30T07:24:07;100276.22;;;12.34;100.00
64243;BME280;50573;51.512;5.386;2023-03-30T07:34:11;100301.47;;;12.98;100.00
64243;BME280;50573;51.512;5.386;2023-03-30T07:44:20;100317.69;;;13.19;98.66
64243;BME280;50573;51.512;5.386;2023-03-30T07:54:26;100333.78;;;13.59;97.53
64243;BME280;50573;51.512;5.386;2023-03-30T08:04:52;100345.97;;;13.81;94.97
64243;BME280;50573;51.512;5.386;2023-03-30T08:15:04;100354.53;;;13.98;93.45
64243;BME280;50573;51.512;5.386;2023-03-30T08:25:08;100367.44;;;14.07;89.52
64243;BME280;50573;51.512;5.386;2023-03-30T08:35:13;100368.28;;;14.13;86.13
64243;BME280;50573;51.512;5.386;2023-03-30T08:45:17;100361.88;;;14.16;84.41
64243;BME280;50573;51.512;5.386;2023-03-30T08:55:26;100366.72;;;13.97;82.23
64243;BME280;50573;51.512;5.386;2023-03-30T09:05:34;100370.78;;;14.34;80.58
64243;BME280;50573;51.512;5.386;2023-03-30T09:15:42;100384.84;;;14.65;77.97
64243;BME280;50573;51.512;5.386;2023-03-30T09:25:54;100407.88;;;14.59;77.56
64243;BME280;50573;51.512;5.386;2023-03-30T09:36:12;100408.09;;;14.70;75.86
64243;BME280;50573;51.512;5.386;2023-03-30T09:46:16;100418.72;;;15.06;73.71
64243;BME280;50573;51.512;5.386;2023-03-30T09:56:27;100430.88;;;15.14;72.75
64243;BME280;50573;51.512;5.386;2023-03-30T10:06:34;100440.31;;;15.13;72.48
64243;BME280;50573;51.512;5.386;2023-03-30T10:16:42;100445.44;;;15.20;71.52
64243;BME280;50573;51.512;5.386;2023-03-30T10:26:46;100464.38;;;15.76;71.76
64243;BME280;50573;51.512;5.386;2023-03-30T10:36:53;100453.03;;;15.54;70.42
64243;BME280;50573;51.512;5.386;2023-03-30T10:47:05;100455.78;;;16.03;68.07
64243;BME280;50573;51.512;5.386;2023-03-30T10:57:15;100458.28;;;16.56;66.42
64243;BME280;50573;51.512;5.386;2023-03-30T11:07:25;100460.34;;;16.61;65.92
64243;BME280;50573;51.512;5.386;2023-03-30T11:17:35;100458.72;;;16.34;66.15
64243;BME280;50573;51.512;5.386;2023-03-30T11:27:50;100445.84;;;16.40;66.25
64243;BME280;50573;51.512;5.386;2023-03-30T11:38:01;100450.34;;;16.23;66.67
64243;BME280;50573;51.512;5.386;2023-03-30T11:48:19;100452.81;;;15.87;67.36
64243;BME280;50573;51.512;5.386;2023-03-30T11:58:34;100457.19;;;16.48;68.57
64243;BME280;50573;51.512;5.386;2023-03-30T12:08:55;100465.78;;;16.76;66.19
64243;BME280;50573;51.512;5.386;2023-03-30T12:19:11;100483.13;;;16.27;65.01
64243;BME280;50573;51.512;5.386;2023-03-30T12:29:18;100476.06;;;16.40;63.78
64243;BME280;50573;51.512;5.386;2023-03-30T12:39:44;100474.50;;;15.85;68.62
64243;BME280;50573;51.512;5.386;2023-03-30T12:50:00;100463.53;;;16.74;64.78
64243;BME280;50573;51.512;5.386;2023-03-30T13:10:48;100447.00;;;17.20;59.61
64243;BME280;50573;51.512;5.386;2023-03-30T13:21:15;100450.72;;;17.42;58.61
64243;BME280;50573;51.512;5.386;2023-03-30T13:31:31;100444.72;;;17.44;60.28
64243;BME280;50573;51.512;5.386;2023-03-30T13:41:44;100431.44;;;17.17;59.29
64243;BME280;50573;51.512;5.386;2023-03-30T13:51:52;100441.84;;;16.82;61.37
64243;BME280;50573;51.512;5.386;2023-03-30T14:02:00;100471.13;;;15.46;79.74
64243;BME280;50573;51.512;5.386;2023-03-30T14:12:05;100471.13;;;15.46;80.94
64243;BME280;50573;51.512;5.386;2023-03-30T14:22:10;100462.13;;;15.60;76.20
64243;BME280;50573;51.512;5.386;2023-03-30T14:32:18;100462.47;;;15.82;76.39
64243;BME280;50573;51.512;5.386;2023-03-30T14:42:25;100446.88;;;16.08;76.10
64243;BME280;50573;51.512;5.386;2023-03-30T14:52:33;100448.63;;;15.91;77.98
64243;BME280;50573;51.512;5.386;2023-03-30T15:02:40;100441.31;;;16.23;77.60
64243;BME280;50573;51.512;5.386;2023-03-30T15:12:45;100446.22;;;16.33;74.50
64243;BME280;50573;51.512;5.386;2023-03-30T15:22:49;100428.59;;;17.06;69.23
64243;BME280;50573;51.512;5.386;2023-03-30T15:32:55;100430.53;;;17.25;67.36
64243;BME280;50573;51.512;5.386;2023-03-30T15:43:20;100426.50;;;16.95;66.52
64243;BME280;50573;51.512;5.386;2023-03-30T15:53:33;100428.44;;;16.29;67.90
64243;BME280;50573;51.512;5.386;2023-03-30T16:03:38;100417.84;;;16.22;68.45
64243;BME280;50573;51.512;5.386;2023-03-30T16:13:44;100425.56;;;16.03;69.32
64243;BME280;50573;51.512;5.386;2023-03-30T16:23:47;100402.91;;;16.08;66.66
64243;BME280;50573;51.512;5.386;2023-03-30T16:33:52;100439.38;;;15.74;68.98
64243;BME280;50573;51.512;5.386;2023-03-30T16:43:55;100422.38;;;15.41;71.82
64243;BME280;50573;51.512;5.386;2023-03-30T16:53:59;100423.31;;;15.53;72.44
64243;BME280;50573;51.512;5.386;2023-03-30T17:04:02;100408.94;;;15.43;72.36
64243;BME280;50573;51.512;5.386;2023-03-30T17:14:12;100417.69;;;15.32;75.99
64243;BME280;50573;51.512;5.386;2023-03-30T17:24:15;100410.97;;;15.04;78.42
64243;BME280;50573;51.512;5.386;2023-03-30T17:34:20;100415.69;;;14.75;83.26
64243;BME280;50573;51.512;5.386;2023-03-30T17:44:23;100421.31;;;14.57;86.76
64243;BME280;50573;51.512;5.386;2023-03-30T17:54:30;100414.00;;;14.30;89.03
64243;BME280;50573;51.512;5.386;2023-03-30T18:04:33;100416.09;;;14.12;90.52
64243;BME280;50573;51.512;5.386;2023-03-30T18:14:38;100415.72;;;13.95;91.05
64243;BME280;50573;51.512;5.386;2023-03-30T18:24:41;100412.84;;;13.89;91.88
64243;BME280;50573;51.512;5.386;2023-03-30T18:34:45;100417.91;;;13.82;91.78
64243;BME280;50573;51.512;5.386;2023-03-30T18:44:48;100416.72;;;13.74;91.60
64243;BME280;50573;51.512;5.386;2023-03-30T18:54:53;100418.69;;;13.73;91.07
64243;BME280;50573;51.512;5.386;2023-03-30T19:04:56;100420.09;;;13.69;91.45
64243;BME280;50573;51.512;5.386;2023-03-30T19:15:01;100410.56;;;13.55;91.41
64243;BME280;50573;51.512;5.386;2023-03-30T19:25:05;100401.22;;;13.29;92.64
64243;BME280;50573;51.512;5.386;2023-03-30T19:35:10;100401.56;;;12.95;94.25
64243;BME280;50573;51.512;5.386;2023-03-30T19:45:15;100396.88;;;12.87;94.79
64243;BME280;50573;51.512;5.386;2023-03-30T19:55:20;100386.84;;;12.75;95.15
64243;BME280;50573;51.512;5.386;2023-03-30T20:05:23;100391.41;;;12.78;95.38
64243;BME280;50573;51.512;5.386;2023-03-30T20:15:28;100380.34;;;12.72;95.23
64243;BME280;50573;51.512;5.386;2023-03-30T20:25:31;100365.91;;;12.53;95.92
64243;BME280;50573;51.512;5.386;2023-03-30T20:35:36;100361.84;;;12.40;96.46
64243;BME280;50573;51.512;5.386;2023-03-30T20:45:39;100350.25;;;12.18;97.69
64243;BME280;50573;51.512;5.386;2023-03-30T20:55:50;100349.19;;;12.06;98.44
64243;BME280;50573;51.512;5.386;2023-03-30T21:05:58;100350.25;;;12.00;98.46
64243;BME280;50573;51.512;5.386;2023-03-30T21:16:05;100341.59;;;11.83;99.09
64243;BME280;50573;51.512;5.386;2023-03-30T21:26:08;100336.22;;;11.71;99.65
64243;BME280;50573;51.512;5.386;2023-03-30T21:36:13;100316.00;;;11.50;100.00
64243;BME280;50573;51.512;5.386;2023-03-30T21:46:18;100307.47;;;11.39;100.00
64243;BME280;50573;51.512;5.386;2023-03-30T21:56:25;100297.28;;;11.31;100.00
64243;BME280;50573;51.512;5.386;2023-03-30T22:06:28;100306.16;;;11.13;100.00
64243;BME280;50573;51.512;5.386;2023-03-30T22:16:32;100266.63;;;11.08;100.00
64243;BME280;50573;51.512;5.386;2023-03-30T22:26:37;100273.84;;;11.02;100.00
64243;BME280;50573;51.512;5.386;2023-03-30T22:36:41;100251.09;;;10.96;100.00
64243;BME280;50573;51.512;5.386;2023-03-30T22:46:44;100240.78;;;10.91;100.00
64243;BME280;50573;51.512;5.386;2023-03-30T22:56:49;100212.69;;;11.03;100.00
64243;BME280;50573;51.512;5.386;2023-03-30T23:06:52;100198.94;;;11.07;100.00
64243;BME280;50573;51.512;5.386;2023-03-30T23:16:57;100189.97;;;11.06;100.00
64243;BME280;50573;51.512;5.386;2023-03-30T23:27:01;100159.09;;;11.00;100.00
64243;BME280;50573;51.512;5.386;2023-03-30T23:37:05;100139.38;;;10.96;100.00
64243;BME280;50573;51.512;5.386;2023-03-30T23:47:08;100126.84;;;10.99;100.00
64243;BME280;50573;51.512;5.386;2023-03-30T23:57:13;100117.31;;;11.12;100.00
